sensor_id;sensor_type;location;lat;lon;timestamp;P1;durP1;ratioP1;P2;durP2;ratioP2
7432;SDS011;32233;49.500;7.764;2023-03-31T00:01:41;6.60;;;3.47;;
7432;SDS011;32233;49.500;7.764;2023-03-31T00:04:08;5.60;;;2.80;;
7432;SDS011;32233;49.500;7.764;2023-03-31T00:06:39;11.67;;;2.40;;
7432;SDS011;32233;49.500;7.764;2023-03-31T00:09:11;6.93;;;1.77;;
7432;SDS011;32233;49.500;7.764;2023-03-31T00:11:44;5.73;;;1.70;;
7432;SDS011;32233;49.500;7.764;2023-03-31T00:14:11;9.67;;;1.90;;
7432;SDS011;32233;49.500;7.764;2023-03-31T00:16:38;11.47;;;1.63;;
7432;SDS011;32233;49.500;7.764;2023-03-31T00:19:05;4.47;;;1.40;;
7432;SDS011;32233;49.500;7.764;2023-03-31T00:21:35;11.07;;;1.53;;
7432;SDS011;32233;49.500;7.764;2023-03-31T00:24:03;6.37;;;1.60;;
7432;SDS011;32233;49.500;7.764;2023-03-31T00:26:32;8.27;;;1.70;;
7432;SDS011;32233;49.500;7.764;2023-03-31T00:29:01;7.23;;;1.43;;
7432;SDS011;32233;49.500;7.764;2023-03-31T00:31:29;8.57;;;1.80;;
7432;SDS011;32233;49.500;7.764;2023-03-31T00:33:56;11.87;;;1.67;;
7432;SDS011;32233;49.500;7.764;2023-03-31T00:36:23;11.87;;;1.77;;
7432;SDS011;32233;49.500;7.764;2023-03-31T00:38:58;7.33;;;1.70;;
7432;SDS011;32233;49.500;7.764;2023-03-31T00:41:36;8.87;;;1.70;;
7432;SDS011;32233;49.500;7.764;2023-03-31T00:46:56;5.93;;;1.40;;
7432;SDS011;32233;49.500;7.764;2023-03-31T00:52:03;6.87;;;1.77;;
7432;SDS011;32233;49.500;7.764;2023-03-31T00:54:35;9.00;;;1.77;;
7432;SDS011;32233;49.500;7.764;2023-03-31T00:57:03;8.17;;;1.53;;
7432;SDS011;32233;49.500;7.764;2023-03-31T00:59:33;5.33;;;1.10;;
7432;SDS011;32233;49.500;7.764;2023-03-31T01:02:04;6.80;;;1.80;;
7432;SDS011;32233;49.500;7.764;2023-03-31T01:04:36;8.00;;;1.30;;
7432;SDS011;32233;49.500;7.764;2023-03-31T01:07:13;12.30;;;1.73;;
7432;SDS011;32233;49.500;7.764;2023-03-31T01:09:44;6.57;;;1.50;;
7432;SDS011;32233;49.500;7.764;2023-03-31T01:12:14;7.53;;;1.20;;
7432;SDS011;32233;49.500;7.764;2023-03-31T01:14:42;9.73;;;1.60;;
7432;SDS011;32233;49.500;7.764;2023-03-31T01:17:10;7.77;;;1.30;;
7432;SDS011;32233;49.500;7.764;2023-03-31T01:31:14;9.03;;;1.60;;
7432;SDS011;32233;49.500;7.764;2023-03-31T01:53:30;6.73;;;1.90;;
7432;SDS011;32233;49.500;7.764;2023-03-31T01:56:21;10.90;;;1.50;;
7432;SDS011;32233;49.500;7.764;2023-03-31T01:58:57;6.80;;;1.43;;
7432;SDS011;32233;49.500;7.764;2023-03-31T02:01:30;7.20;;;2.00;;
7432;SDS011;32233;49.500;7.764;2023-03-31T02:04:07;6.70;;;1.40;;
7432;SDS011;32233;49.500;7.764;2023-03-31T02:06:41;7.83;;;1.93;;
7432;SDS011;32233;49.500;7.764;2023-03-31T02:09:14;9.63;;;1.80;;
7432;SDS011;32233;49.500;7.764;2023-03-31T02:11:43;9.80;;;1.40;;
7432;SDS011;32233;49.500;7.764;2023-03-31T02:14:13;11.70;;;2.10;;
7432;SDS011;32233;49.500;7.764;2023-03-31T02:16:44;8.87;;;1.60;;
7432;SDS011;32233;49.500;7.764;2023-03-31T02:19:14;5.97;;;1.30;;
7432;SDS011;32233;49.500;7.764;2023-03-31T02:21:44;8.80;;;1.47;;
7432;SDS011;32233;49.500;7.764;2023-03-31T02:24:15;6.27;;;1.33;;
7432;SDS011;32233;49.500;7.764;2023-03-31T02:26:47;9.13;;;1.73;;
7432;SDS011;32233;49.500;7.764;2023-03-31T02:29:19;6.67;;;1.50;;
7432;SDS011;32233;49.500;7.764;2023-03-31T02:31:48;6.47;;;1.43;;
7432;SDS011;32233;49.500;7.764;2023-03-31T02:34:22;5.83;;;1.60;;
7432;SDS011;32233;49.500;7.764;2023-03-31T02:36:49;9.00;;;2.97;;
7432;SDS011;32233;49.500;7.764;2023-03-31T02:39:17;8.97;;;1.70;;
7432;SDS011;32233;49.500;7.764;2023-03-31T02:41:50;9.30;;;1.30;;
7432;SDS011;32233;49.500;7.764;2023-03-31T02:44:18;6.80;;;1.50;;
7432;SDS011;32233;49.500;7.764;2023-03-31T02:46:46;6.70;;;1.20;;
7432;SDS011;32233;49.500;7.764;2023-03-31T02:49:13;7.37;;;1.30;;
7432;SDS011;32233;49.500;7.764;2023-03-31T03:03:35;7.40;;;1.27;;
7432;SDS011;32233;49.500;7.764;2023-03-31T03:06:37;3.20;;;1.43;;
7432;SDS011;32233;49.500;7.764;2023-03-31T03:09:18;4.13;;;0.90;;
7432;SDS011;32233;49.500;7.764;2023-03-31T03:17:19;5.30;;;0.97;;
7432;SDS011;32233;49.500;7.764;2023-03-31T03:19:54;4.73;;;1.00;;
7432;SDS011;32233;49.500;7.764;2023-03-31T03:22:24;2.63;;;0.90;;
7432;SDS011;32233;49.500;7.764;2023-03-31T03:24:51;5.63;;;0.83;;
7432;SDS011;32233;49.500;7.764;2023-03-31T03:27:19;2.87;;;0.90;;
7432;SDS011;32233;49.500;7.764;2023-03-31T03:29:48;6.80;;;1.10;;
7432;SDS011;32233;49.500;7.764;2023-03-31T03:32:14;5.17;;;0.97;;
7432;SDS011;32233;49.500;7.764;2023-03-31T03:34:41;6.97;;;1.10;;
7432;SDS011;32233;49.500;7.764;2023-03-31T03:37:07;6.27;;;1.33;;
7432;SDS011;32233;49.500;7.764;2023-03-31T03:39:34;4.43;;;1.07;;
7432;SDS011;32233;49.500;7.764;2023-03-31T03:42:01;7.73;;;1.43;;
7432;SDS011;32233;49.500;7.764;2023-03-31T03:44:27;2.97;;;0.90;;
7432;SDS011;32233;49.500;7.764;2023-03-31T03:46:54;6.57;;;1.40;;
7432;SDS011;32233;49.500;7.764;2023-03-31T03:49:21;4.10;;;1.10;;
7432;SDS011;32233;49.500;7.764;2023-03-31T03:51:47;5.23;;;1.10;;
7432;SDS011;32233;49.500;7.764;2023-03-31T03:54:14;5.27;;;0.90;;
7432;SDS011;32233;49.500;7.764;2023-03-31T03:56:41;5.03;;;1.30;;
7432;SDS011;32233;49.500;7.764;2023-03-31T03:59:07;7.50;;;1.30;;
7432;SDS011;32233;49.500;7.764;2023-03-31T04:01:36;7.33;;;1.30;;
7432;SDS011;32233;49.500;7.764;2023-03-31T04:04:03;6.17;;;1.33;;
7432;SDS011;32233;49.500;7.764;2023-03-31T04:06:29;5.77;;;1.23;;
7432;SDS011;32233;49.500;7.764;2023-03-31T04:08:56;5.90;;;1.30;;
7432;SDS011;32233;49.500;7.764;2023-03-31T04:11:23;3.53;;;1.20;;
7432;SDS011;32233;49.500;7.764;2023-03-31T04:13:49;8.47;;;1.80;;
7432;SDS011;32233;49.500;7.764;2023-03-31T04:16:16;6.97;;;1.50;;
7432;SDS011;32233;49.500;7.764;2023-03-31T04:18:44;5.67;;;1.20;;
7432;SDS011;32233;49.500;7.764;2023-03-31T04:21:11;5.07;;;1.20;;
7432;SDS011;32233;49.500;7.764;2023-03-31T04:23:41;6.67;;;1.30;;
7432;SDS011;32233;49.500;7.764;2023-03-31T04:26:14;4.37;;;1.20;;
7432;SDS011;32233;49.500;7.764;2023-03-31T04:28:42;8.60;;;1.40;;
7432;SDS011;32233;49.500;7.764;2023-03-31T04:31:12;3.33;;;1.23;;
7432;SDS011;32233;49.500;7.764;2023-03-31T04:33:52;7.33;;;1.40;;
7432;SDS011;32233;49.500;7.764;2023-03-31T04:36:20;7.40;;;1.97;;
7432;SDS011;32233;49.500;7.764;2023-03-31T04:38:48;7.80;;;1.50;;
7432;SDS011;32233;49.500;7.764;2023-03-31T04:41:21;10.87;;;1.60;;
7432;SDS011;32233;49.500;7.764;2023-03-31T04:43:49;5.27;;;1.53;;
7432;SDS011;32233;49.500;7.764;2023-03-31T04:46:16;7.20;;;1.60;;
7432;SDS011;32233;49.500;7.764;2023-03-31T04:48:42;8.40;;;2.17;;
7432;SDS011;32233;49.500;7.764;2023-03-31T04:51:09;6.40;;;1.87;;
7432;SDS011;32233;49.500;7.764;2023-03-31T04:53:35;7.23;;;2.00;;
7432;SDS011;32233;49.500;7.764;2023-03-31T04:56:02;9.33;;;2.50;;
7432;SDS011;32233;49.500;7.764;2023-03-31T04:58:29;10.37;;;2.80;;
7432;SDS011;32233;49.500;7.764;2023-03-31T05:00:56;8.40;;;2.20;;
7432;SDS011;32233;49.500;7.764;2023-03-31T05:03:22;8.53;;;2.60;;
7432;SDS011;32233;49.500;7.764;2023-03-31T05:05:49;6.80;;;2.53;;
7432;SDS011;32233;49.500;7.764;2023-03-31T05:08:16;7.13;;;2.67;;
7432;SDS011;32233;49.500;7.764;2023-03-31T05:10:42;10.17;;;2.53;;
7432;SDS011;32233;49.500;7.764;2023-03-31T05:13:09;12.40;;;3.60;;
7432;SDS011;32233;49.500;7.764;2023-03-31T05:15:37;8.37;;;2.60;;
7432;SDS011;32233;49.500;7.764;2023-03-31T05:18:05;11.03;;;2.87;;
7432;SDS011;32233;49.500;7.764;2023-03-31T05:20:32;7.10;;;2.67;;
7432;SDS011;32233;49.500;7.764;2023-03-31T05:22:59;10.23;;;2.80;;
7432;SDS011;32233;49.500;7.764;2023-03-31T05:25:25;8.77;;;3.60;;
7432;SDS011;32233;49.500;7.764;2023-03-31T05:27:58;8.73;;;3.40;;
7432;SDS011;32233;49.500;7.764;2023-03-31T05:30:25;11.37;;;3.73;;
7432;SDS011;32233;49.500;7.764;2023-03-31T05:32:52;9.47;;;3.93;;
7432;SDS011;32233;49.500;7.764;2023-03-31T05:35:19;8.97;;;3.87;;
7432;SDS011;32233;49.500;7.764;2023-03-31T05:37:46;6.77;;;4.00;;
7432;SDS011;32233;49.500;7.764;2023-03-31T05:40:12;7.47;;;3.93;;
7432;SDS011;32233;49.500;7.764;2023-03-31T05:42:39;7.83;;;3.67;;
7432;SDS011;32233;49.500;7.764;2023-03-31T05:45:07;10.23;;;4.57;;
7432;SDS011;32233;49.500;7.764;2023-03-31T05:47:34;13.93;;;4.97;;
7432;SDS011;32233;49.500;7.764;2023-03-31T05:50:02;12.37;;;4.83;;
7432;SDS011;32233;49.500;7.764;2023-03-31T05:52:33;11.37;;;5.37;;
7432;SDS011;32233;49.500;7.764;2023-03-31T05:55:00;10.67;;;4.87;;
7432;SDS011;32233;49.500;7.764;2023-03-31T05:57:27;9.40;;;5.20;;
7432;SDS011;32233;49.500;7.764;2023-03-31T05:59:54;13.20;;;5.60;;
7432;SDS011;32233;49.500;7.764;2023-03-31T06:02:21;15.07;;;5.33;;
7432;SDS011;32233;49.500;7.764;2023-03-31T06:04:47;10.47;;;4.57;;
7432;SDS011;32233;49.500;7.764;2023-03-31T06:07:15;11.47;;;5.10;;
7432;SDS011;32233;49.500;7.764;2023-03-31T06:09:43;18.50;;;5.10;;
7432;SDS011;32233;49.500;7.764;2023-03-31T06:12:10;24.20;;;6.37;;
7432;SDS011;32233;49.500;7.764;2023-03-31T06:14:37;17.47;;;5.13;;
7432;SDS011;32233;49.500;7.764;2023-03-31T06:17:04;10.87;;;5.53;;
7432;SDS011;32233;49.500;7.764;2023-03-31T06:19:30;12.67;;;5.63;;
7432;SDS011;32233;49.500;7.764;2023-03-31T06:21:57;8.57;;;4.97;;
7432;SDS011;32233;49.500;7.764;2023-03-31T06:24:24;11.60;;;5.27;;
7432;SDS011;32233;49.500;7.764;2023-03-31T06:26:51;11.90;;;4.87;;
7432;SDS011;32233;49.500;7.764;2023-03-31T06:29:19;9.53;;;4.70;;
7432;SDS011;32233;49.500;7.764;2023-03-31T06:31:46;10.23;;;5.20;;
7432;SDS011;32233;49.500;7.764;2023-03-31T06:34:12;14.10;;;4.63;;
7432;SDS011;32233;49.500;7.764;2023-03-31T06:36:39;8.53;;;5.03;;
7432;SDS011;32233;49.500;7.764;2023-03-31T06:39:07;13.43;;;4.93;;
7432;SDS011;32233;49.500;7.764;2023-03-31T06:41:33;11.60;;;6.23;;
7432;SDS011;32233;49.500;7.764;2023-03-31T06:44:00;9.73;;;5.30;;
7432;SDS011;32233;49.500;7.764;2023-03-31T06:46:26;16.10;;;6.30;;
7432;SDS011;32233;49.500;7.764;2023-03-31T06:48:53;11.07;;;5.57;;
7432;SDS011;32233;49.500;7.764;2023-03-31T06:51:20;9.20;;;5.40;;
7432;SDS011;32233;49.500;7.764;2023-03-31T06:53:46;9.57;;;5.40;;
7432;SDS011;32233;49.500;7.764;2023-03-31T06:56:13;11.80;;;5.27;;
7432;SDS011;32233;49.500;7.764;2023-03-31T06:58:40;9.27;;;5.20;;
7432;SDS011;32233;49.500;7.764;2023-03-31T07:01:06;11.03;;;4.93;;
7432;SDS011;32233;49.500;7.764;2023-03-31T07:03:33;14.93;;;5.50;;
7432;SDS011;32233;49.500;7.764;2023-03-31T07:06:00;17.00;;;5.40;;
7432;SDS011;32233;49.500;7.764;2023-03-31T07:08:27;25.87;;;6.37;;
7432;SDS011;32233;49.500;7.764;2023-03-31T07:10:55;31.40;;;6.20;;
7432;SDS011;32233;49.500;7.764;2023-03-31T07:13:23;14.13;;;5.20;;
7432;SDS011;32233;49.500;7.764;2023-03-31T07:15:51;12.97;;;4.90;;
7432;SDS011;32233;49.500;7.764;2023-03-31T07:18:19;13.80;;;5.37;;
7432;SDS011;32233;49.500;7.764;2023-03-31T07:20:49;10.27;;;4.83;;
7432;SDS011;32233;49.500;7.764;2023-03-31T07:23:16;11.97;;;4.50;;
7432;SDS011;32233;49.500;7.764;2023-03-31T07:25:43;10.70;;;4.40;;
7432;SDS011;32233;49.500;7.764;2023-03-31T07:28:12;11.87;;;5.13;;
7432;SDS011;32233;49.500;7.764;2023-03-31T07:30:39;13.40;;;5.40;;
7432;SDS011;32233;49.500;7.764;2023-03-31T07:33:06;12.50;;;4.80;;
7432;SDS011;32233;49.500;7.764;2023-03-31T07:35:36;7.10;;;4.73;;
7432;SDS011;32233;49.500;7.764;2023-03-31T07:38:03;13.60;;;4.90;;
7432;SDS011;32233;49.500;7.764;2023-03-31T07:40:29;9.80;;;4.73;;
7432;SDS011;32233;49.500;7.764;2023-03-31T07:42:56;10.17;;;4.90;;
7432;SDS011;32233;49.500;7.764;2023-03-31T07:45:23;10.13;;;4.63;;
7432;SDS011;32233;49.500;7.764;2023-03-31T07:47:51;9.97;;;4.83;;
7432;SDS011;32233;49.500;7.764;2023-03-31T07:50:19;13.50;;;5.37;;
7432;SDS011;32233;49.500;7.764;2023-03-31T07:52:49;11.23;;;4.30;;
7432;SDS011;32233;49.500;7.764;2023-03-31T07:55:16;8.60;;;4.57;;
7432;SDS011;32233;49.500;7.764;2023-03-31T07:57:43;8.70;;;3.30;;
7432;SDS011;32233;49.500;7.764;2023-03-31T08:00:12;7.07;;;2.67;;
7432;SDS011;32233;49.500;7.764;2023-03-31T08:02:40;10.90;;;3.20;;
7432;SDS011;32233;49.500;7.764;2023-03-31T08:05:10;7.83;;;2.77;;
7432;SDS011;32233;49.500;7.764;2023-03-31T08:07:39;6.43;;;2.87;;
7432;SDS011;32233;49.500;7.764;2023-03-31T08:10:08;6.03;;;2.67;;
7432;SDS011;32233;49.500;7.764;2023-03-31T08:12:37;9.60;;;3.30;;
7432;SDS011;32233;49.500;7.764;2023-03-31T08:15:04;9.00;;;3.43;;
7432;SDS011;32233;49.500;7.764;2023-03-31T08:17:31;8.17;;;3.47;;
7432;SDS011;32233;49.500;7.764;2023-03-31T08:19:57;6.00;;;2.97;;
7432;SDS011;32233;49.500;7.764;2023-03-31T08:22:30;6.60;;;3.43;;
7432;SDS011;32233;49.500;7.764;2023-03-31T08:24:56;8.93;;;2.80;;
7432;SDS011;32233;49.500;7.764;2023-03-31T08:27:23;11.83;;;4.30;;
7432;SDS011;32233;49.500;7.764;2023-03-31T08:29:51;9.67;;;4.13;;
7432;SDS011;32233;49.500;7.764;2023-03-31T08:32:17;12.73;;;4.93;;
7432;SDS011;32233;49.500;7.764;2023-03-31T08:34:47;13.10;;;3.93;;
7432;SDS011;32233;49.500;7.764;2023-03-31T08:37:14;8.97;;;4.20;;
7432;SDS011;32233;49.500;7.764;2023-03-31T08:39:40;8.07;;;3.97;;
7432;SDS011;32233;49.500;7.764;2023-03-31T08:42:19;10.77;;;3.77;;
7432;SDS011;32233;49.500;7.764;2023-03-31T08:47:49;10.80;;;3.50;;
7432;SDS011;32233;49.500;7.764;2023-03-31T08:50:20;11.87;;;4.00;;
7432;SDS011;32233;49.500;7.764;2023-03-31T08:52:52;9.67;;;3.47;;
7432;SDS011;32233;49.500;7.764;2023-03-31T08:55:26;11.73;;;2.53;;
7432;SDS011;32233;49.500;7.764;2023-03-31T08:58:07;8.77;;;2.03;;
7432;SDS011;32233;49.500;7.764;2023-03-31T09:00:53;9.23;;;2.40;;
7432;SDS011;32233;49.500;7.764;2023-03-31T09:03:29;10.73;;;2.10;;
7432;SDS011;32233;49.500;7.764;2023-03-31T09:06:00;9.87;;;2.10;;
7432;SDS011;32233;49.500;7.764;2023-03-31T09:08:37;13.73;;;2.23;;
7432;SDS011;32233;49.500;7.764;2023-03-31T09:16:12;9.53;;;2.03;;
7432;SDS011;32233;49.500;7.764;2023-03-31T09:19:01;9.63;;;2.43;;
7432;SDS011;32233;49.500;7.764;2023-03-31T09:21:30;12.17;;;2.40;;
7432;SDS011;32233;49.500;7.764;2023-03-31T09:26:44;6.17;;;1.53;;
7432;SDS011;32233;49.500;7.764;2023-03-31T09:30:01;7.57;;;1.50;;
7432;SDS011;32233;49.500;7.764;2023-03-31T09:32:14;5.90;;;1.60;;
7432;SDS011;32233;49.500;7.764;2023-03-31T09:35:13;4.90;;;1.57;;
7432;SDS011;32233;49.500;7.764;2023-03-31T09:37:43;4.10;;;1.50;;
7432;SDS011;32233;49.500;7.764;2023-03-31T09:40:14;5.43;;;1.40;;
7432;SDS011;32233;49.500;7.764;2023-03-31T09:42:44;6.80;;;1.47;;
7432;SDS011;32233;49.500;7.764;2023-03-31T09:45:15;7.40;;;1.43;;
7432;SDS011;32233;49.500;7.764;2023-03-31T09:47:44;4.07;;;1.27;;
7432;SDS011;32233;49.500;7.764;2023-03-31T09:50:13;8.00;;;1.87;;
7432;SDS011;32233;49.500;7.764;2023-03-31T09:52:42;10.73;;;2.33;;
7432;SDS011;32233;49.500;7.764;2023-03-31T09:55:23;8.77;;;2.70;;
7432;SDS011;32233;49.500;7.764;2023-03-31T09:58:05;10.50;;;2.50;;
7432;SDS011;32233;49.500;7.764;2023-03-31T10:00:34;11.03;;;3.37;;
7432;SDS011;32233;49.500;7.764;2023-03-31T10:03:04;17.50;;;2.73;;
7432;SDS011;32233;49.500;7.764;2023-03-31T10:05:49;9.30;;;2.00;;
7432;SDS011;32233;49.500;7.764;2023-03-31T10:11:05;10.97;;;2.30;;
7432;SDS011;32233;49.500;7.764;2023-03-31T10:16:13;14.20;;;2.80;;
7432;SDS011;32233;49.500;7.764;2023-03-31T10:18:47;11.73;;;2.60;;
7432;SDS011;32233;49.500;7.764;2023-03-31T10:21:19;10.93;;;2.50;;
7432;SDS011;32233;49.500;7.764;2023-03-31T10:23:48;10.57;;;2.30;;
7432;SDS011;32233;49.500;7.764;2023-03-31T10:26:17;12.90;;;2.67;;
7432;SDS011;32233;49.500;7.764;2023-03-31T10:28:47;10.77;;;2.77;;
7432;SDS011;32233;49.500;7.764;2023-03-31T10:31:24;12.30;;;2.60;;
7432;SDS011;32233;49.500;7.764;2023-03-31T10:33:52;18.47;;;2.60;;
7432;SDS011;32233;49.500;7.764;2023-03-31T10:36:25;9.87;;;2.43;;
7432;SDS011;32233;49.500;7.764;2023-03-31T10:38:54;11.20;;;2.67;;
7432;SDS011;32233;49.500;7.764;2023-03-31T10:41:25;12.03;;;3.00;;
7432;SDS011;32233;49.500;7.764;2023-03-31T10:43:55;7.90;;;1.97;;
7432;SDS011;32233;49.500;7.764;2023-03-31T10:46:47;8.77;;;1.90;;
7432;SDS011;32233;49.500;7.764;2023-03-31T10:51:47;8.20;;;1.77;;
7432;SDS011;32233;49.500;7.764;2023-03-31T10:54:18;8.70;;;1.87;;
7432;SDS011;32233;49.500;7.764;2023-03-31T10:56:45;8.27;;;1.70;;
7432;SDS011;32233;49.500;7.764;2023-03-31T11:01:55;7.27;;;1.57;;
7432;SDS011;32233;49.500;7.764;2023-03-31T11:04:28;9.33;;;1.43;;
7432;SDS011;32233;49.500;7.764;2023-03-31T11:09:51;9.70;;;1.50;;
7432;SDS011;32233;49.500;7.764;2023-03-31T11:15:39;6.00;;;1.70;;
7432;SDS011;32233;49.500;7.764;2023-03-31T11:29:28;4.67;;;1.20;;
7432;SDS011;32233;49.500;7.764;2023-03-31T11:43:34;5.27;;;1.23;;
7432;SDS011;32233;49.500;7.764;2023-03-31T11:46:38;5.63;;;0.93;;
7432;SDS011;32233;49.500;7.764;2023-03-31T11:49:17;6.07;;;1.33;;
7432;SDS011;32233;49.500;7.764;2023-03-31T11:51:54;4.83;;;1.47;;
7432;SDS011;32233;49.500;7.764;2023-03-31T11:54:32;5.77;;;1.30;;
7432;SDS011;32233;49.500;7.764;2023-03-31T11:57:09;4.43;;;1.20;;
7432;SDS011;32233;49.500;7.764;2023-03-31T11:59:43;2.57;;;0.90;;
7432;SDS011;32233;49.500;7.764;2023-03-31T12:02:18;3.60;;;0.80;;
7432;SDS011;32233;49.500;7.764;2023-03-31T12:05:02;2.60;;;0.70;;
7432;SDS011;32233;49.500;7.764;2023-03-31T12:07:34;1.97;;;0.80;;
7432;SDS011;32233;49.500;7.764;2023-03-31T12:12:51;2.60;;;0.60;;
7432;SDS011;32233;49.500;7.764;2023-03-31T12:15:23;3.47;;;0.70;;
7432;SDS011;32233;49.500;7.764;2023-03-31T12:17:58;3.23;;;0.70;;
7432;SDS011;32233;49.500;7.764;2023-03-31T12:20:32;3.10;;;0.60;;
7432;SDS011;32233;49.500;7.764;2023-03-31T12:23:03;2.67;;;0.70;;
7432;SDS011;32233;49.500;7.764;2023-03-31T12:25:41;4.17;;;0.70;;
7432;SDS011;32233;49.500;7.764;2023-03-31T12:28:17;2.80;;;0.60;;
7432;SDS011;32233;49.500;7.764;2023-03-31T12:30:44;3.67;;;0.70;;
7432;SDS011;32233;49.500;7.764;2023-03-31T12:33:32;3.73;;;0.77;;
7432;SDS011;32233;49.500;7.764;2023-03-31T12:44:19;3.63;;;0.70;;
7432;SDS011;32233;49.500;7.764;2023-03-31T12:49:49;4.67;;;0.80;;
7432;SDS011;32233;49.500;7.764;2023-03-31T13:01:02;6.20;;;1.17;;
7432;SDS011;32233;49.500;7.764;2023-03-31T13:03:37;5.40;;;1.00;;
7432;SDS011;32233;49.500;7.764;2023-03-31T13:06:54;4.93;;;1.17;;
7432;SDS011;32233;49.500;7.764;2023-03-31T13:08:55;4.73;;;1.83;;
7432;SDS011;32233;49.500;7.764;2023-03-31T13:14:04;2.43;;;1.20;;
7432;SDS011;32233;49.500;7.764;2023-03-31T13:16:31;4.87;;;0.93;;
7432;SDS011;32233;49.500;7.764;2023-03-31T13:19:00;2.77;;;1.20;;
7432;SDS011;32233;49.500;7.764;2023-03-31T13:21:27;4.47;;;1.27;;
7432;SDS011;32233;49.500;7.764;2023-03-31T13:23:58;4.67;;;0.93;;
7432;SDS011;32233;49.500;7.764;2023-03-31T13:34:27;5.10;;;1.30;;
7432;SDS011;32233;49.500;7.764;2023-03-31T13:37:20;7.07;;;1.20;;
7432;SDS011;32233;49.500;7.764;2023-03-31T13:43:04;5.40;;;1.30;;
7432;SDS011;32233;49.500;7.764;2023-03-31T13:45:55;4.60;;;1.00;;
7432;SDS011;32233;49.500;7.764;2023-03-31T14:05:34;9.70;;;1.50;;
7432;SDS011;32233;49.500;7.764;2023-03-31T14:08:07;5.93;;;1.53;;
7432;SDS011;32233;49.500;7.764;2023-03-31T14:10:40;4.60;;;0.93;;
7432;SDS011;32233;49.500;7.764;2023-03-31T14:15:57;4.73;;;0.90;;
7432;SDS011;32233;49.500;7.764;2023-03-31T14:18:28;7.50;;;1.20;;
7432;SDS011;32233;49.500;7.764;2023-03-31T14:37:00;7.60;;;1.27;;
7432;SDS011;32233;49.500;7.764;2023-03-31T14:39:30;3.60;;;1.00;;
7432;SDS011;32233;49.500;7.764;2023-03-31T14:42:09;8.53;;;1.30;;
7432;SDS011;32233;49.500;7.764;2023-03-31T14:44:39;3.90;;;0.90;;
7432;SDS011;32233;49.500;7.764;2023-03-31T14:47:15;5.70;;;1.20;;
7432;SDS011;32233;49.500;7.764;2023-03-31T14:49:41;5.23;;;0.87;;
7432;SDS011;32233;49.500;7.764;2023-03-31T14:52:13;5.03;;;1.00;;
7432;SDS011;32233;49.500;7.764;2023-03-31T14:54:42;6.80;;;1.37;;
7432;SDS011;32233;49.500;7.764;2023-03-31T14:57:19;5.67;;;1.23;;
7432;SDS011;32233;49.500;7.764;2023-03-31T14:59:53;3.40;;;1.07;;
7432;SDS011;32233;49.500;7.764;2023-03-31T15:02:31;7.47;;;1.30;;
7432;SDS011;32233;49.500;7.764;2023-03-31T15:05:03;5.27;;;1.03;;
7432;SDS011;32233;49.500;7.764;2023-03-31T15:07:32;5.50;;;1.10;;
7432;SDS011;32233;49.500;7.764;2023-03-31T15:10:00;6.63;;;0.87;;
7432;SDS011;32233;49.500;7.764;2023-03-31T15:12:28;6.10;;;1.00;;
7432;SDS011;32233;49.500;7.764;2023-03-31T15:14:57;6.23;;;1.27;;
7432;SDS011;32233;49.500;7.764;2023-03-31T15:17:30;4.77;;;0.90;;
7432;SDS011;32233;49.500;7.764;2023-03-31T15:20:01;5.37;;;1.43;;
7432;SDS011;32233;49.500;7.764;2023-03-31T15:23:04;6.20;;;1.07;;
7432;SDS011;32233;49.500;7.764;2023-03-31T15:25:46;5.40;;;1.20;;
7432;SDS011;32233;49.500;7.764;2023-03-31T15:28:13;4.73;;;1.13;;
7432;SDS011;32233;49.500;7.764;2023-03-31T15:30:42;5.50;;;0.90;;
7432;SDS011;32233;49.500;7.764;2023-03-31T15:33:17;5.93;;;1.10;;
7432;SDS011;32233;49.500;7.764;2023-03-31T15:35:47;4.13;;;0.90;;
7432;SDS011;32233;49.500;7.764;2023-03-31T15:38:14;3.93;;;1.37;;
7432;SDS011;32233;49.500;7.764;2023-03-31T15:40:51;2.17;;;0.67;;
7432;SDS011;32233;49.500;7.764;2023-03-31T15:43:31;7.53;;;1.13;;
7432;SDS011;32233;49.500;7.764;2023-03-31T15:46:08;4.20;;;0.80;;
7432;SDS011;32233;49.500;7.764;2023-03-31T15:48:53;3.57;;;0.80;;
7432;SDS011;32233;49.500;7.764;2023-03-31T15:51:39;3.83;;;1.00;;
7432;SDS011;32233;49.500;7.764;2023-03-31T15:54:32;4.47;;;0.90;;
7432;SDS011;32233;49.500;7.764;2023-03-31T15:57:16;5.37;;;0.80;;
7432;SDS011;32233;49.500;7.764;2023-03-31T15:59:48;6.00;;;1.00;;
7432;SDS011;32233;49.500;7.764;2023-03-31T16:02:22;5.63;;;0.90;;
7432;SDS011;32233;49.500;7.764;2023-03-31T16:04:55;8.47;;;1.20;;
7432;SDS011;32233;49.500;7.764;2023-03-31T16:07:25;5.87;;;0.83;;
7432;SDS011;32233;49.500;7.764;2023-03-31T16:09:58;6.10;;;1.10;;
7432;SDS011;32233;49.500;7.764;2023-03-31T16:12:57;4.93;;;1.40;;
7432;SDS011;32233;49.500;7.764;2023-03-31T16:15:37;3.67;;;0.80;;
7432;SDS011;32233;49.500;7.764;2023-03-31T16:21:03;4.17;;;1.03;;
7432;SDS011;32233;49.500;7.764;2023-03-31T16:23:33;6.27;;;1.00;;
7432;SDS011;32233;49.500;7.764;2023-03-31T16:26:03;2.73;;;0.83;;
7432;SDS011;32233;49.500;7.764;2023-03-31T16:28:33;3.63;;;1.00;;
7432;SDS011;32233;49.500;7.764;2023-03-31T16:31:01;4.07;;;1.10;;
7432;SDS011;32233;49.500;7.764;2023-03-31T16:33:31;6.40;;;1.23;;
7432;SDS011;32233;49.500;7.764;2023-03-31T16:36:18;6.23;;;1.10;;
7432;SDS011;32233;49.500;7.764;2023-03-31T16:38:44;4.30;;;1.03;;
7432;SDS011;32233;49.500;7.764;2023-03-31T16:41:12;4.07;;;1.27;;
7432;SDS011;32233;49.500;7.764;2023-03-31T16:43:41;3.73;;;1.00;;
7432;SDS011;32233;49.500;7.764;2023-03-31T16:46:10;4.47;;;1.03;;
7432;SDS011;32233;49.500;7.764;2023-03-31T16:48:36;5.63;;;1.50;;
7432;SDS011;32233;49.500;7.764;2023-03-31T16:51:03;5.60;;;1.07;;
7432;SDS011;32233;49.500;7.764;2023-03-31T16:53:31;3.13;;;1.00;;
7432;SDS011;32233;49.500;7.764;2023-03-31T16:55:59;3.93;;;1.10;;
7432;SDS011;32233;49.500;7.764;2023-03-31T16:58:26;2.80;;;0.60;;
7432;SDS011;32233;49.500;7.764;2023-03-31T17:00:56;4.03;;;0.80;;
7432;SDS011;32233;49.500;7.764;2023-03-31T17:03:23;2.27;;;0.80;;
7432;SDS011;32233;49.500;7.764;2023-03-31T17:05:51;2.50;;;0.60;;
7432;SDS011;32233;49.500;7.764;2023-03-31T17:08:23;2.07;;;0.60;;
7432;SDS011;32233;49.500;7.764;2023-03-31T17:11:02;2.10;;;0.53;;
7432;SDS011;32233;49.500;7.764;2023-03-31T17:13:32;1.63;;;0.60;;
7432;SDS011;32233;49.500;7.764;2023-03-31T17:15:59;1.37;;;0.40;;
7432;SDS011;32233;49.500;7.764;2023-03-31T17:18:41;0.93;;;0.33;;
7432;SDS011;32233;49.500;7.764;2023-03-31T17:21:08;1.13;;;0.40;;
7432;SDS011;32233;49.500;7.764;2023-03-31T17:23:36;1.20;;;0.40;;
7432;SDS011;32233;49.500;7.764;2023-03-31T17:26:04;2.07;;;0.50;;
7432;SDS011;32233;49.500;7.764;2023-03-31T17:28:32;1.63;;;0.60;;
7432;SDS011;32233;49.500;7.764;2023-03-31T17:30:58;2.50;;;0.60;;
7432;SDS011;32233;49.500;7.764;2023-03-31T17:33:25;1.50;;;0.57;;
7432;SDS011;32233;49.500;7.764;2023-03-31T17:35:56;2.90;;;0.73;;
7432;SDS011;32233;49.500;7.764;2023-03-31T17:38:26;2.10;;;0.60;;
7432;SDS011;32233;49.500;7.764;2023-03-31T17:40:52;2.13;;;0.60;;
7432;SDS011;32233;49.500;7.764;2023-03-31T17:43:19;3.23;;;0.70;;
7432;SDS011;32233;49.500;7.764;2023-03-31T17:45:46;3.67;;;0.97;;
7432;SDS011;32233;49.500;7.764;2023-03-31T17:48:13;4.00;;;1.10;;
7432;SDS011;32233;49.500;7.764;2023-03-31T17:50:41;4.37;;;0.83;;
7432;SDS011;32233;49.500;7.764;2023-03-31T17:53:08;4.50;;;0.70;;
7432;SDS011;32233;49.500;7.764;2023-03-31T17:55:35;2.73;;;0.70;;
7432;SDS011;32233;49.500;7.764;2023-03-31T17:58:04;3.27;;;0.97;;
7432;SDS011;32233;49.500;7.764;2023-03-31T18:00:31;6.67;;;1.00;;
7432;SDS011;32233;49.500;7.764;2023-03-31T18:02:58;4.33;;;0.83;;
7432;SDS011;32233;49.500;7.764;2023-03-31T18:05:24;6.13;;;1.20;;
7432;SDS011;32233;49.500;7.764;2023-03-31T18:07:51;4.30;;;0.87;;
7432;SDS011;32233;49.500;7.764;2023-03-31T18:10:18;3.57;;;0.80;;
7432;SDS011;32233;49.500;7.764;2023-03-31T18:12:45;6.90;;;1.10;;
7432;SDS011;32233;49.500;7.764;2023-03-31T18:15:11;4.53;;;1.00;;
7432;SDS011;32233;49.500;7.764;2023-03-31T18:17:38;3.80;;;1.00;;
7432;SDS011;32233;49.500;7.764;2023-03-31T18:20:05;4.27;;;0.80;;